Time;durP1;ratioP1;P1;durP2;ratioP2;P2;SDS_P1;SDS_P2;PMS_P1;PMS_P2;Temp;Humidity;BMP_temperature;BMP_pressure;BME280_temperature;BME280_humidity;BME280_pressure;Samples;Min_cycle;Max_cycle;Signal;HPM_P1;HPM_P2
2023/07/17 00:02:16;;;;;;;;;;;;;;;30.53;37.67;94534.41;5049285;28;7326;-56
2023/07/17 00:04:44;;;;;;;;;;;;;;;30.54;38.04;94536.63;5015609;28;7207;-56
2023/07/17 00:07:12;;;;;;;;;;;;;;;30.55;37.40;94537.38;5049541;28;7012;-55
2023/07/17 00:09:43;;;;;;;;;;;;;;;30.54;38.00;94550.50;5050206;28;7009;-55
2023/07/17 00:12:09;;;;;;;;;;;;;;;30.52;37.89;94555.09;5029460;28;8959;-56
2023/07/17 00:14:37;;;;;;;;;;;;;;;30.49;37.49;94562.47;5032734;28;9492;-61
2023/07/17 00:17:06;;;;;;;;;;;;;;;30.48;38.40;94538.78;5048736;28;6993;-61
2023/07/17 00:20:03;;;;;;;;;;;;;;;30.48;38.02;94532.50;5050568;28;6999;-61
2023/07/17 00:22:31;;;;;;;;;;;;;;;30.49;37.92;94553.41;5033032;28;7439;-61
2023/07/17 00:24:59;;;;;;;;;;;;;;;30.47;38.33;94570.59;5050465;28;8714;-61
2023/07/17 00:27:25;;;;;;;;;;;;;;;30.46;38.66;94569.13;5048281;28;6983;-61
2023/07/17 00:29:52;;;;;;;;;;;;;;;30.43;37.42;94547.97;5050762;28;7227;-61
2023/07/17 00:32:20;;;;;;;;;;;;;;;30.45;37.74;94553.75;5049111;28;7244;-61
2023/07/17 00:34:56;;;;;;;;;;;;;;;30.46;37.81;94552.47;5025396;28;7404;-61
2023/07/17 00:37:31;;;;;;;;;;;;;;;30.42;38.00;94540.19;5048044;28;7249;-61
2023/07/17 00:40:04;;;;;;;;;;;;;;;30.44;38.71;94549.47;5049790;28;7272;-61
2023/07/17 00:42:30;;;;;;;;;;;;;;;30.43;38.34;94559.09;5046828;28;9016;-61
2023/07/17 00:45:00;;;;;;;;;;;;;;;30.43;38.14;94552.78;5048277;28;8940;-61
2023/07/17 00:47:29;;;;;;;;;;;;;;;30.41;38.54;94545.00;5030517;28;7508;-61
2023/07/17 00:50:31;;;;;;;;;;;;;;;30.40;37.61;94549.06;5049810;28;7261;-61
2023/07/17 00:52:57;;;;;;;;;;;;;;;30.42;38.46;94554.84;5048322;28;9063;-61
2023/07/17 00:55:25;;;;;;;;;;;;;;;30.43;38.08;94570.19;5028778;28;8747;-61
2023/07/17 00:57:56;;;;;;;;;;;;;;;30.42;38.34;94579.81;5029467;28;7374;-62
2023/07/17 01:00:24;;;;;;;;;;;;;;;30.42;38.25;94585.38;5023869;28;9074;-62
2023/07/17 01:03:06;;;;;;;;;;;;;;;30.39;38.31;94574.56;5052519;28;7101;-61
2023/07/17 01:05:33;;;;;;;;;;;;;;;30.41;38.68;94569.97;5052041;28;7202;-61
2023/07/17 01:07:59;;;;;;;;;;;;;;;30.40;37.66;94573.31;5035103;28;7351;-62
2023/07/17 01:11:03;;;;;;;;;;;;;;;30.37;38.38;94564.03;5052516;28;7074;-61
2023/07/17 01:13:53;;;;;;;;;;;;;;;30.37;38.20;94582.69;4965312;28;7218;-62
2023/07/17 01:16:20;;;;;;;;;;;;;;;30.39;38.83;94588.44;4974136;28;9091;-62
2023/07/17 01:18:58;;;;;;;;;;;;;;;30.35;39.02;94602.66;4988477;28;9032;-62
2023/07/17 01:21:41;;;;;;;;;;;;;;;30.40;37.90;94637.91;4990378;28;7602;-62
2023/07/17 01:24:24;;;;;;;;;;;;;;;30.35;38.90;94635.97;4991963;28;9093;-63
2023/07/17 01:26:50;;;;;;;;;;;;;;;30.37;38.93;94616.75;4991607;28;9211;-63
2023/07/17 01:29:30;;;;;;;;;;;;;;;30.32;37.93;94580.81;4991618;28;7297;-64
2023/07/17 01:32:00;;;;;;;;;;;;;;;30.35;37.99;94590.81;4974308;28;7765;-63
2023/07/17 01:35:05;;;;;;;;;;;;;;;30.36;37.95;94601.38;4986420;28;9151;-63
2023/07/17 01:37:46;;;;;;;;;;;;;;;30.32;39.01;94603.00;4990302;28;7281;-63
2023/07/17 01:40:16;;;;;;;;;;;;;;;30.30;38.53;94595.16;4991664;28;8757;-64
2023/07/17 01:42:41;;;;;;;;;;;;;;;30.29;38.42;94615.16;4974000;28;8888;-64
2023/07/17 01:45:42;;;;;;;;;;;;;;;30.28;38.22;94611.63;4975028;28;9038;-63
2023/07/17 01:48:34;;;;;;;;;;;;;;;30.27;38.99;94610.13;4922657;28;7322;-63
2023/07/17 01:51:31;;;;;;;;;;;;;;;30.24;38.92;94611.19;4935153;28;8995;-63
2023/07/17 01:54:36;;;;;;;;;;;;;;;30.26;38.64;94614.19;4941979;28;6974;-64
2023/07/17 01:57:02;;;;;;;;;;;;;;;30.26;38.05;94608.63;4951866;29;9358;-64
2023/07/17 01:59:42;;;;;;;;;;;;;;;30.27;38.61;94612.91;4950474;29;7697;-64
2023/07/17 02:02:08;;;;;;;;;;;;;;;30.29;38.02;94613.13;4945097;29;9136;-63
2023/07/17 02:05:23;;;;;;;;;;;;;;;30.30;37.94;94606.28;4935763;29;7204;-63
2023/07/17 02:07:51;;;;;;;;;;;;;;;30.27;38.78;94596.25;4858274;29;7285;-63
2023/07/17 02:10:27;;;;;;;;;;;;;;;30.29;38.46;94582.59;4843823;29;8747;-64
2023/07/17 02:13:14;;;;;;;;;;;;;;;30.30;38.34;94588.88;4849850;29;9225;-63
2023/07/17 02:15:49;;;;;;;;;;;;;;;30.28;38.87;94588.66;4850926;29;7633;-64
2023/07/17 02:18:18;;;;;;;;;;;;;;;30.25;38.28;94590.50;4859037;29;7778;-63
2023/07/17 02:20:44;;;;;;;;;;;;;;;30.28;38.71;94591.44;4856176;29;7257;-63
2023/07/17 02:23:20;;;;;;;;;;;;;;;30.26;38.21;94585.69;4871283;29;7264;-63
2023/07/17 02:25:56;;;;;;;;;;;;;;;30.25;38.09;94592.53;4904575;29;7268;-64
2023/07/17 02:28:22;;;;;;;;;;;;;;;30.23;38.53;94595.81;4920996;29;7380;-64
2023/07/17 02:31:12;;;;;;;;;;;;;;;30.23;37.62;94595.09;4916790;29;7298;-64
2023/07/17 02:33:39;;;;;;;;;;;;;;;30.23;38.52;94598.59;4918361;29;7920;-63
2023/07/17 02:36:35;;;;;;;;;;;;;;;30.24;38.20;94597.31;4922630;29;7105;-57
2023/07/17 02:39:05;;;;;;;;;;;;;;;30.24;38.45;94602.88;4921325;29;7181;-57
2023/07/17 02:41:42;;;;;;;;;;;;;;;30.24;38.78;94602.88;4918203;29;8213;-57
2023/07/17 02:44:09;;;;;;;;;;;;;;;30.26;37.84;94602.34;4974147;28;7102;-55
2023/07/17 02:46:36;;;;;;;;;;;;;;;30.27;38.69;94604.59;5033588;28;8401;-56
2023/07/17 02:49:06;;;;;;;;;;;;;;;30.28;38.91;94597.75;5037602;28;7521;-56
2023/07/17 02:51:41;;;;;;;;;;;;;;;30.28;38.61;94606.06;5047438;28;7725;-56
2023/07/17 02:54:32;;;;;;;;;;;;;;;30.30;38.69;94606.28;5052407;28;7462;-56
2023/07/17 02:57:05;;;;;;;;;;;;;;;30.29;38.61;94610.34;5040233;28;9029;-56
2023/07/17 02:59:36;;;;;;;;;;;;;;;30.25;38.36;94615.47;5033932;28;7494;-57
2023/07/17 03:02:05;;;;;;;;;;;;;;;30.24;38.75;94613.22;5038740;28;7288;-57
2023/07/17 03:04:37;;;;;;;;;;;;;;;30.25;37.79;94618.25;5055140;28;8191;-56
2023/07/17 03:07:04;;;;;;;;;;;;;;;30.24;38.71;94621.53;5056677;28;9398;-56
2023/07/17 03:09:39;;;;;;;;;;;;;;;30.22;38.17;94611.00;5033837;28;8436;-56
2023/07/17 03:12:21;;;;;;;;;;;;;;;30.24;38.57;94616.75;5035424;28;7317;-56
2023/07/17 03:15:02;;;;;;;;;;;;;;;30.24;38.28;94618.78;5054735;28;7009;-56
2023/07/17 03:17:48;;;;;;;;;;;;;;;30.22;37.94;94618.56;5055795;28;9370;-56
2023/07/17 03:20:18;;;;;;;;;;;;;;;30.24;38.04;94627.84;5032071;28;9040;-56
2023/07/17 03:22:48;;;;;;;;;;;;;;;30.24;38.21;94624.31;5032847;28;7166;-56
2023/07/17 03:25:30;;;;;;;;;;;;;;;30.25;37.54;94621.03;5038865;28;7376;-56
2023/07/17 03:27:58;;;;;;;;;;;;;;;30.23;38.76;94628.41;5050761;28;6978;-56
2023/07/17 03:30:57;;;;;;;;;;;;;;;30.22;38.23;94632.44;5037943;28;7288;-57
2023/07/17 03:33:25;;;;;;;;;;;;;;;30.20;38.33;94638.53;4973750;28;7514;-56
2023/07/17 03:35:53;;;;;;;;;;;;;;;30.17;38.24;94631.28;4974929;28;8802;-57
2023/07/17 03:38:21;;;;;;;;;;;;;;;30.17;38.72;94625.72;4958431;28;8822;-56
2023/07/17 03:40:49;;;;;;;;;;;;;;;30.18;37.97;94624.44;4953936;28;9192;-56
2023/07/17 03:43:15;;;;;;;;;;;;;;;30.13;38.26;94614.22;4955676;28;9193;-56
2023/07/17 03:45:54;;;;;;;;;;;;;;;30.14;38.24;94620.50;4974124;28;9077;-63
2023/07/17 03:48:20;;;;;;;;;;;;;;;30.17;38.49;94624.97;4960716;28;7060;-64
2023/07/17 03:50:47;;;;;;;;;;;;;;;30.16;38.84;94621.47;4971638;28;7334;-63
2023/07/17 03:53:23;;;;;;;;;;;;;;;30.15;38.92;94631.06;4972771;28;7277;-64
2023/07/17 03:55:49;;;;;;;;;;;;;;;30.16;38.68;94634.59;4975220;28;7244;-64
2023/07/17 03:58:21;;;;;;;;;;;;;;;30.14;37.69;94643.47;4957522;28;9058;-64
2023/07/17 04:00:48;;;;;;;;;;;;;;;30.14;37.73;94629.59;4944015;28;8179;-64
2023/07/17 04:03:14;;;;;;;;;;;;;;;30.12;37.93;94632.16;4972800;28;9756;-64
2023/07/17 04:05:42;;;;;;;;;;;;;;;30.15;38.27;94627.53;4951935;28;7253;-64
2023/07/17 04:08:41;;;;;;;;;;;;;;;30.15;38.68;94625.50;4967107;28;7244;-63
2023/07/17 04:11:15;;;;;;;;;;;;;;;30.13;37.90;94624.56;4939664;28;9150;-64
2023/07/17 04:13:44;;;;;;;;;;;;;;;30.13;38.97;94621.78;4962417;28;9142;-63
2023/07/17 04:16:12;;;;;;;;;;;;;;;30.16;38.55;94629.78;4983564;28;7004;-64
2023/07/17 04:18:38;;;;;;;;;;;;;;;30.15;38.78;94633.84;4967133;28;7003;-63
2023/07/17 04:21:04;;;;;;;;;;;;;;;30.16;38.19;94640.88;4980907;28;9676;-63
2023/07/17 04:23:32;;;;;;;;;;;;;;;30.16;38.33;94646.44;4979035;28;9033;-63
2023/07/17 04:26:00;;;;;;;;;;;;;;;30.14;38.76;94635.13;4991769;28;7185;-64
2023/07/17 04:28:37;;;;;;;;;;;;;;;30.12;38.21;94634.94;4990228;28;7231;-63
2023/07/17 04:31:14;;;;;;;;;;;;;;;30.14;38.88;94642.69;4974518;28;7643;-64
2023/07/17 04:33:42;;;;;;;;;;;;;;;30.15;38.61;94647.72;4971608;28;7399;-64
2023/07/17 04:36:08;;;;;;;;;;;;;;;30.13;38.25;94649.53;4973164;28;8919;-64
2023/07/17 04:38:45;;;;;;;;;;;;;;;30.13;37.99;94658.59;4983008;28;7192;-63
2023/07/17 04:41:11;;;;;;;;;;;;;;;30.14;38.62;94660.09;4962644;28;7167;-64
2023/07/17 04:43:39;;;;;;;;;;;;;;;30.16;38.78;94662.34;4971912;28;7010;-63
2023/07/17 04:46:05;;;;;;;;;;;;;;;30.16;37.79;94651.25;4962116;28;7465;-63
2023/07/17 04:48:33;;;;;;;;;;;;;;;30.13;37.90;94650.28;5047988;28;7523;-63
2023/07/17 04:50:59;;;;;;;;;;;;;;;30.11;39.09;94663.19;5035506;28;8762;-63
2023/07/17 04:53:27;;;;;;;;;;;;;;;30.12;38.11;94662.66;5036157;28;7398;-64
2023/07/17 04:56:02;;;;;;;;;;;;;;;30.12;39.03;94673.00;5036207;28;7076;-56
2023/07/17 04:58:32;;;;;;;;;;;;;;;30.12;38.27;94671.00;5028492;28;9536;-56
2023/07/17 05:01:05;;;;;;;;;;;;;;;30.11;38.21;94663.94;5022698;28;7336;-56
2023/07/17 05:03:32;;;;;;;;;;;;;;;30.10;38.64;94665.19;5030690;28;6984;-56
2023/07/17 05:06:06;;;;;;;;;;;;;;;30.12;38.85;94670.25;5049215;28;7201;-56
2023/07/17 05:08:41;;;;;;;;;;;;;;;30.10;38.71;94673.53;5044957;28;6951;-56
2023/07/17 05:11:10;;;;;;;;;;;;;;;30.10;38.35;94676.28;5056338;28;8925;-56
2023/07/17 05:13:37;;;;;;;;;;;;;;;30.06;38.75;94675.88;5021259;28;7096;-56
2023/07/17 05:16:03;;;;;;;;;;;;;;;30.03;38.49;94676.22;5052852;28;7080;-56
2023/07/17 05:18:32;;;;;;;;;;;;;;;29.99;38.59;94679.31;5048717;28;9046;-56
2023/07/17 05:20:58;;;;;;;;;;;;;;;29.99;38.63;94679.31;5034521;28;7458;-56
2023/07/17 05:23:30;;;;;;;;;;;;;;;29.99;39.33;94673.75;5030934;28;7011;-56
2023/07/17 05:25:59;;;;;;;;;;;;;;;29.97;38.61;94667.97;5027561;28;7239;-56
2023/07/17 05:28:30;;;;;;;;;;;;;;;29.93;39.08;94673.09;5031203;28;9087;-56
2023/07/17 05:31:06;;;;;;;;;;;;;;;29.94;39.80;94684.94;5038360;28;8985;-56
2023/07/17 05:33:46;;;;;;;;;;;;;;;29.92;39.08;94677.16;5035265;28;8749;-56
2023/07/17 05:36:14;;;;;;;;;;;;;;;29.90;39.53;94685.28;5042587;28;8731;-56
2023/07/17 05:38:56;;;;;;;;;;;;;;;29.91;39.08;94681.22;5033067;28;7271;-56
2023/07/17 05:41:24;;;;;;;;;;;;;;;29.90;38.97;94676.97;5044734;28;8175;-56
2023/07/17 05:43:52;;;;;;;;;;;;;;;29.89;39.38;94669.91;5043585;28;7246;-57
2023/07/17 05:46:25;;;;;;;;;;;;;;;29.91;39.30;94670.13;5033369;28;7138;-57
2023/07/17 05:48:51;;;;;;;;;;;;;;;29.93;40.18;94667.56;5047908;28;9001;-56
2023/07/17 05:51:50;;;;;;;;;;;;;;;29.94;40.27;94677.38;5048366;28;7226;-56
2023/07/17 05:54:16;;;;;;;;;;;;;;;29.88;40.20;94668.44;4959497;28;7122;-56
2023/07/17 05:56:57;;;;;;;;;;;;;;;29.89;39.37;94683.03;4983822;28;9539;-56
2023/07/17 05:59:41;;;;;;;;;;;;;;;29.89;40.23;94685.78;4976149;28;9478;-56
2023/07/17 06:02:08;;;;;;;;;;;;;;;29.89;39.77;94688.56;4949634;28;9310;-56
2023/07/17 06:04:51;;;;;;;;;;;;;;;29.87;39.84;94686.34;4954537;28;9058;-55
2023/07/17 06:07:28;;;;;;;;;;;;;;;29.89;39.45;94692.09;4970608;28;7190;-55
2023/07/17 06:09:57;;;;;;;;;;;;;;;29.87;40.43;94689.09;4969454;28;8080;-54
2023/07/17 06:12:23;;;;;;;;;;;;;;;29.82;40.62;94692.72;4973782;28;7206;-55
2023/07/17 06:14:54;;;;;;;;;;;;;;;29.84;40.23;94703.31;4955123;28;9101;-55
2023/07/17 06:17:22;;;;;;;;;;;;;;;29.80;40.46;94698.81;4967686;28;9073;-55
2023/07/17 06:19:51;;;;;;;;;;;;;;;29.83;39.40;94694.22;4972805;28;7901;-55
2023/07/17 06:22:20;;;;;;;;;;;;;;;29.77;39.49;94693.59;4970302;28;7482;-55
2023/07/17 06:24:51;;;;;;;;;;;;;;;29.84;39.43;94692.94;4959776;28;7494;-55
2023/07/17 06:27:17;;;;;;;;;;;;;;;29.83;40.11;94690.69;4969612;28;7522;-55
2023/07/17 06:30:10;;;;;;;;;;;;;;;29.83;39.58;94691.47;4993598;28;7321;-55
2023/07/17 06:32:47;;;;;;;;;;;;;;;29.80;40.23;94692.50;4977550;28;6999;-55
2023/07/17 06:35:36;;;;;;;;;;;;;;;29.78;40.19;94687.50;4992096;28;7235;-55
2023/07/17 06:38:02;;;;;;;;;;;;;;;29.81;38.94;94688.47;4990549;28;7362;-55
2023/07/17 06:40:29;;;;;;;;;;;;;;;29.80;39.33;94693.25;4986016;28;8730;-55
2023/07/17 06:43:08;;;;;;;;;;;;;;;29.81;40.17;94696.78;4987132;28;9017;-55
2023/07/17 06:45:35;;;;;;;;;;;;;;;29.82;39.22;94700.31;4987207;28;7191;-55
2023/07/17 06:48:10;;;;;;;;;;;;;;;29.79;39.45;94700.09;4970733;28;9195;-55
2023/07/17 06:50:47;;;;;;;;;;;;;;;29.82;39.73;94705.88;4971268;28;6990;-55
2023/07/17 06:53:14;;;;;;;;;;;;;;;29.84;39.75;94706.78;4968675;28;7289;-55
2023/07/17 06:56:05;;;;;;;;;;;;;;;29.87;39.37;94714.06;4978290;28;7223;-55
2023/07/17 06:58:39;;;;;;;;;;;;;;;29.85;39.26;94713.84;4988636;28;8951;-55
2023/07/17 07:01:16;;;;;;;;;;;;;;;29.86;39.31;94706.28;4985964;28;6998;-55
2023/07/17 07:03:45;;;;;;;;;;;;;;;29.87;39.62;94714.06;4981131;28;6975;-53
2023/07/17 07:06:46;;;;;;;;;;;;;;;29.89;39.20;94716.31;4988284;28;9046;-53
2023/07/17 07:09:18;;;;;;;;;;;;;;;29.87;38.74;94716.84;4997823;28;7054;-55
2023/07/17 07:11:44;;;;;;;;;;;;;;;29.86;39.47;94707.03;5033879;28;8373;-55
2023/07/17 07:14:15;;;;;;;;;;;;;;;29.86;38.42;94700.75;5042843;28;8183;-64
2023/07/17 07:16:41;;;;;;;;;;;;;;;29.83;39.14;94713.63;5044081;28;7236;-64
2023/07/17 07:19:07;;;;;;;;;;;;;;;29.84;38.20;94717.91;5048343;28;8915;-64
2023/07/17 07:21:52;;;;;;;;;;;;;;;29.84;39.11;94723.44;5028265;28;8824;-63
2023/07/17 07:24:33;;;;;;;;;;;;;;;29.83;39.34;94727.50;5034151;28;7393;-63
2023/07/17 07:27:03;;;;;;;;;;;;;;;29.80;38.28;94718.22;5042662;28;7180;-63
2023/07/17 07:29:31;;;;;;;;;;;;;;;29.80;38.47;94714.69;5041870;28;7596;-63
2023/07/17 07:32:02;;;;;;;;;;;;;;;29.82;38.86;94722.50;5024132;28;7202;-64
2023/07/17 07:34:44;;;;;;;;;;;;;;;29.80;39.12;94720.22;5030288;28;7084;-64
2023/07/17 07:37:12;;;;;;;;;;;;;;;29.80;38.65;94721.00;5048947;28;7233;-63
2023/07/17 07:39:40;;;;;;;;;;;;;;;29.81;38.14;94730.06;5040538;28;6983;-63
2023/07/17 07:42:06;;;;;;;;;;;;;;;29.80;38.83;94721.00;5034835;28;8935;-64
2023/07/17 07:44:36;;;;;;;;;;;;;;;29.79;38.34;94732.63;5031819;28;9478;-64
2023/07/17 07:47:06;;;;;;;;;;;;;;;29.77;38.05;94726.88;5050540;28;7263;-64
2023/07/17 07:49:43;;;;;;;;;;;;;;;29.78;38.60;94731.88;5045504;28;9185;-64
2023/07/17 07:52:10;;;;;;;;;;;;;;;29.77;38.11;94732.41;5028627;28;7263;-64
2023/07/17 07:54:37;;;;;;;;;;;;;;;29.75;37.58;94716.28;5031434;28;7422;-64
2023/07/17 07:57:05;;;;;;;;;;;;;;;29.78;38.59;94725.56;5032216;28;9324;-64
2023/07/17 07:59:39;;;;;;;;;;;;;;;29.79;38.29;94729.84;5049303;28;7291;-64
2023/07/17 08:02:07;;;;;;;;;;;;;;;29.77;37.65;94743.50;5028913;28;7075;-64
2023/07/17 08:04:39;;;;;;;;;;;;;;;29.74;37.74;94727.91;5027693;28;7247;-65
2023/07/17 08:07:22;;;;;;;;;;;;;;;29.77;38.25;94724.84;5023911;28;9079;-65
2023/07/17 08:10:14;;;;;;;;;;;;;;;29.81;38.12;94721.75;5034061;28;7033;-65
2023/07/17 08:13:10;;;;;;;;;;;;;;;29.82;38.82;94714.91;5032662;28;9047;-65
2023/07/17 08:15:45;;;;;;;;;;;;;;;29.85;38.48;94727.72;4975748;28;8256;-65
2023/07/17 08:18:16;;;;;;;;;;;;;;;29.82;38.29;94714.19;4983124;28;7142;-65
2023/07/17 08:20:45;;;;;;;;;;;;;;;29.76;37.35;94705.94;4987573;28;7072;-65
2023/07/17 08:23:11;;;;;;;;;;;;;;;29.81;37.68;94724.50;4981343;28;7273;-65
2023/07/17 08:25:56;;;;;;;;;;;;;;;29.80;37.20;94732.09;4976470;28;7240;-63
2023/07/17 08:28:24;;;;;;;;;;;;;;;29.79;37.32;94735.41;4985260;28;9034;-63
2023/07/17 08:31:03;;;;;;;;;;;;;;;29.80;37.75;94725.78;4973105;28;7065;-63
2023/07/17 08:33:29;;;;;;;;;;;;;;;29.84;37.74;94731.03;4986862;28;7257;-63
2023/07/17 08:36:12;;;;;;;;;;;;;;;29.84;37.40;94726.22;4979938;28;7026;-63
2023/07/17 08:38:38;;;;;;;;;;;;;;;29.85;37.48;94733.25;4983679;28;9053;-63
2023/07/17 08:41:14;;;;;;;;;;;;;;;29.86;36.69;94728.47;4980687;28;9316;-63
2023/07/17 08:43:52;;;;;;;;;;;;;;;29.83;37.33;94724.72;4967351;28;7236;-63
2023/07/17 08:46:31;;;;;;;;;;;;;;;29.83;36.81;94721.97;4985239;28;7237;-63
2023/07/17 08:49:00;;;;;;;;;;;;;;;29.88;36.52;94723.13;4975554;28;6931;-63
2023/07/17 08:51:42;;;;;;;;;;;;;;;29.86;36.76;94714.59;4998463;28;7246;-62
2023/07/17 08:54:23;;;;;;;;;;;;;;;29.88;37.49;94726.66;5048131;28;8670;-63
2023/07/17 08:56:58;;;;;;;;;;;;;;;29.91;36.91;94720.03;5029964;28;6993;-64
2023/07/17 08:59:54;;;;;;;;;;;;;;;29.91;36.17;94725.59;5037165;28;8794;-63
2023/07/17 09:02:35;;;;;;;;;;;;;;;29.92;36.06;94720.78;5030989;28;9450;-63
2023/07/17 09:05:03;;;;;;;;;;;;;;;29.92;37.04;94715.25;5032232;28;7352;-63
2023/07/17 09:07:29;;;;;;;;;;;;;;;29.93;35.99;94720.25;5037903;28;7167;-63
2023/07/17 09:10:19;;;;;;;;;;;;;;;29.92;36.38;94716.00;5045147;28;7106;-64
2023/07/17 09:12:51;;;;;;;;;;;;;;;29.94;37.29;94712.69;5035491;28;7239;-64
2023/07/17 09:15:22;;;;;;;;;;;;;;;29.93;36.37;94711.22;5035755;28;9757;-63
2023/07/17 09:17:49;;;;;;;;;;;;;;;29.94;36.34;94707.13;5044028;28;7244;-63
2023/07/17 09:20:19;;;;;;;;;;;;;;;29.95;36.95;94714.91;5024842;28;6996;-63
2023/07/17 09:23:14;;;;;;;;;;;;;;;29.96;36.86;94707.34;5026278;28;6978;-63
2023/07/17 09:25:54;;;;;;;;;;;;;;;29.95;37.06;94712.16;4978881;28;8206;-63
2023/07/17 09:28:22;;;;;;;;;;;;;;;29.97;37.29;94717.19;4969790;28;9041;-63
2023/07/17 09:31:00;;;;;;;;;;;;;;;29.91;37.14;94708.94;4986270;28;7311;-62
2023/07/17 09:33:36;;;;;;;;;;;;;;;29.93;36.90;94716.75;4984008;28;9163;-62
2023/07/17 09:36:09;;;;;;;;;;;;;;;29.94;36.22;94712.69;4986028;28;8790;-65
2023/07/17 09:38:39;;;;;;;;;;;;;;;29.94;36.79;94701.59;4971405;28;7258;-65
2023/07/17 09:41:25;;;;;;;;;;;;;;;29.96;37.40;94699.78;4984995;28;9217;-65
2023/07/17 09:44:05;;;;;;;;;;;;;;;29.95;36.56;94709.38;4981335;28;7203;-65
2023/07/17 09:46:36;;;;;;;;;;;;;;;29.97;36.90;94717.91;4968671;28;7303;-65
2023/07/17 09:49:08;;;;;;;;;;;;;;;29.98;36.75;94699.25;4984725;28;9037;-65
2023/07/17 09:51:38;;;;;;;;;;;;;;;29.96;37.44;94694.25;4969041;28;7608;-65
2023/07/17 09:54:05;;;;;;;;;;;;;;;29.98;36.54;94700.00;4968977;28;7161;-65
2023/07/17 09:56:32;;;;;;;;;;;;;;;30.02;36.63;94705.22;4973549;28;9330;-65
2023/07/17 09:59:18;;;;;;;;;;;;;;;30.00;36.86;94705.00;4972453;28;9074;-65
2023/07/17 10:01:55;;;;;;;;;;;;;;;30.02;37.17;94710.75;4979404;28;8751;-65
2023/07/17 10:04:39;;;;;;;;;;;;;;;30.02;37.57;94708.75;5045196;28;9150;-65
2023/07/17 10:07:14;;;;;;;;;;;;;;;30.02;37.68;94711.50;5045259;28;7123;-65
2023/07/17 10:09:45;;;;;;;;;;;;;;;30.02;37.42;94708.75;5033100;28;6982;-65
2023/07/17 10:12:12;;;;;;;;;;;;;;;30.02;37.21;94719.09;5044742;28;9084;-65
2023/07/17 10:14:46;;;;;;;;;;;;;;;30.03;37.04;94706.72;5021403;28;9061;-65
2023/07/17 10:17:29;;;;;;;;;;;;;;;30.06;37.52;94706.41;5030615;28;6993;-65
2023/07/17 10:20:00;;;;;;;;;;;;;;;30.05;37.47;94702.13;5034748;28;7616;-65
2023/07/17 10:22:35;;;;;;;;;;;;;;;30.04;36.49;94697.84;5023810;28;7632;-65
2023/07/17 10:25:19;;;;;;;;;;;;;;;30.07;36.67;94691.25;5027529;28;9182;-65
2023/07/17 10:27:57;;;;;;;;;;;;;;;30.07;36.55;94693.28;5027547;28;9091;-65
2023/07/17 10:30:35;;;;;;;;;;;;;;;30.09;36.45;94697.00;5024186;28;7132;-65
2023/07/17 10:33:05;;;;;;;;;;;;;;;30.08;36.58;94697.56;5031814;28;7150;-65
2023/07/17 10:35:43;;;;;;;;;;;;;;;30.07;37.82;94698.81;5032785;28;9421;-65
2023/07/17 10:38:14;;;;;;;;;;;;;;;30.02;37.15;94692.09;5052887;28;9115;-65
2023/07/17 10:40:40;;;;;;;;;;;;;;;30.07;38.59;94693.28;5033944;28;9281;-65
2023/07/17 10:43:25;;;;;;;;;;;;;;;30.11;38.58;94694.44;5021516;28;7262;-65
2023/07/17 10:45:59;;;;;;;;;;;;;;;30.11;37.91;94696.47;5038164;28;7154;-61
2023/07/17 10:48:34;;;;;;;;;;;;;;;30.13;38.05;94694.66;5030419;28;9023;-60
2023/07/17 10:51:08;;;;;;;;;;;;;;;30.17;37.34;94692.31;5050198;28;7011;-61
2023/07/17 10:53:36;;;;;;;;;;;;;;;30.15;37.49;94689.31;5026673;28;7255;-62
2023/07/17 10:56:05;;;;;;;;;;;;;;;30.17;37.12;94688.78;5032886;28;8714;-61
2023/07/17 10:58:38;;;;;;;;;;;;;;;30.18;37.97;94687.50;5033349;28;7041;-61
2023/07/17 11:01:07;;;;;;;;;;;;;;;30.19;37.95;94689.03;5037656;28;7431;-62
2023/07/17 11:03:53;;;;;;;;;;;;;;;30.19;37.12;94698.06;5028233;28;7308;-61
2023/07/17 11:06:39;;;;;;;;;;;;;;;30.21;37.26;94689.22;5019301;28;9384;-61
2023/07/17 11:09:32;;;;;;;;;;;;;;;30.22;37.49;94682.38;5025818;28;7439;-61
2023/07/17 11:11:59;;;;;;;;;;;;;;;30.18;38.24;94684.75;5037893;28;9152;-61
2023/07/17 11:14:27;;;;;;;;;;;;;;;30.18;38.44;94682.72;5031163;28;9083;-61
2023/07/17 11:16:58;;;;;;;;;;;;;;;30.20;37.80;94680.16;5027896;28;9298;-61
2023/07/17 11:19:26;;;;;;;;;;;;;;;30.19;37.67;94678.66;5029433;28;8821;-61
2023/07/17 11:21:56;;;;;;;;;;;;;;;30.22;37.41;94685.16;5051608;28;9215;-61
2023/07/17 11:24:49;;;;;;;;;;;;;;;30.21;38.33;94678.84;5048108;28;7062;-61
2023/07/17 11:27:17;;;;;;;;;;;;;;;30.24;37.89;94682.59;4973446;28;8907;-61
2023/07/17 11:30:14;;;;;;;;;;;;;;;30.22;38.05;94680.38;4989942;28;7248;-61
2023/07/17 11:32:59;;;;;;;;;;;;;;;30.24;37.74;94685.38;4983479;28;7236;-61
2023/07/17 11:35:52;;;;;;;;;;;;;;;30.25;38.45;94675.78;4978847;28;9197;-61
2023/07/17 11:38:20;;;;;;;;;;;;;;;30.24;37.49;94679.81;4991926;28;7245;-61
2023/07/17 11:40:57;;;;;;;;;;;;;;;30.23;37.60;94673.50;4994688;28;7075;-61
2023/07/17 11:43:27;;;;;;;;;;;;;;;30.22;38.00;94660.19;4977736;28;7242;-62
2023/07/17 11:46:01;;;;;;;;;;;;;;;30.25;38.09;94670.97;4977930;28;6988;-61
2023/07/17 11:48:32;;;;;;;;;;;;;;;30.26;37.95;94661.34;4993663;28;7278;-61
2023/07/17 11:51:04;;;;;;;;;;;;;;;30.26;37.36;94669.69;4994611;28;7447;-62
2023/07/17 11:53:55;;;;;;;;;;;;;;;30.31;38.26;94674.41;4984508;28;8784;-61
2023/07/17 11:56:43;;;;;;;;;;;;;;;30.33;37.75;94676.63;4994340;28;9134;-61
2023/07/17 11:59:48;;;;;;;;;;;;;;;30.33;38.63;94668.31;4992422;28;7137;-61
2023/07/17 12:02:19;;;;;;;;;;;;;;;30.35;38.01;94666.50;4993542;28;7216;-61
2023/07/17 12:04:45;;;;;;;;;;;;;;;30.33;38.62;94671.84;5018612;28;6862;-61
2023/07/17 12:07:21;;;;;;;;;;;;;;;30.32;38.00;94667.56;5052241;28;9382;-61
2023/07/17 12:09:49;;;;;;;;;;;;;;;30.33;37.92;94669.06;5031796;28;8828;-61
2023/07/17 12:12:17;;;;;;;;;;;;;;;30.35;37.86;94674.81;5049728;28;9395;-61
2023/07/17 12:14:46;;;;;;;;;;;;;;;30.34;37.80;94667.78;5035800;28;8069;-61
2023/07/17 12:17:16;;;;;;;;;;;;;;;30.37;37.60;94663.19;5034709;28;6860;-62
2023/07/17 12:19:43;;;;;;;;;;;;;;;30.33;38.06;94660.75;5034665;28;7897;-61
2023/07/17 12:22:11;;;;;;;;;;;;;;;30.40;38.18;94662.88;5035944;28;6983;-62
2023/07/17 12:24:37;;;;;;;;;;;;;;;30.41;38.05;94655.28;5031107;28;7053;-62
2023/07/17 12:27:05;;;;;;;;;;;;;;;30.43;38.25;94652.69;5029088;28;7068;-62
2023/07/17 12:29:31;;;;;;;;;;;;;;;30.43;37.79;94656.22;5042912;28;7101;-62
2023/07/17 12:32:02;;;;;;;;;;;;;;;30.46;37.50;94662.75;5047268;28;7132;-61
2023/07/17 12:34:28;;;;;;;;;;;;;;;30.44;38.35;94660.50;5029451;28;8794;-61
2023/07/17 12:36:54;;;;;;;;;;;;;;;30.43;38.37;94653.44;5036600;28;7102;-61
2023/07/17 12:39:28;;;;;;;;;;;;;;;30.43;38.83;94658.25;5045027;28;9051;-61
2023/07/17 12:41:54;;;;;;;;;;;;;;;30.42;37.83;94649.19;5032789;28;7233;-61
2023/07/17 12:44:20;;;;;;;;;;;;;;;30.40;38.00;94651.78;5042308;28;9056;-61
2023/07/17 12:46:48;;;;;;;;;;;;;;;30.46;38.47;94646.84;5030868;28;8764;-61
2023/07/17 12:49:15;;;;;;;;;;;;;;;30.45;37.98;94650.13;5033721;28;7272;-61
2023/07/17 12:51:43;;;;;;;;;;;;;;;30.43;37.97;94650.69;5034671;28;7107;-61
2023/07/17 12:54:12;;;;;;;;;;;;;;;30.45;38.03;94650.88;5046482;28;7258;-61
2023/07/17 12:56:40;;;;;;;;;;;;;;;30.41;38.91;94644.91;5025314;28;9107;-61
2023/07/17 12:59:07;;;;;;;;;;;;;;;30.45;38.61;94641.81;5049345;28;7243;-61
2023/07/17 13:01:36;;;;;;;;;;;;;;;30.43;38.72;94647.16;5031420;28;7232;-61
2023/07/17 13:04:11;;;;;;;;;;;;;;;30.45;38.23;94644.59;5031708;28;7116;-61
2023/07/17 13:06:54;;;;;;;;;;;;;;;30.44;39.13;94635.53;5047049;28;7140;-61
2023/07/17 13:09:24;;;;;;;;;;;;;;;30.45;38.89;94639.78;5030261;28;9029;-61
2023/07/17 13:11:51;;;;;;;;;;;;;;;30.44;38.00;94632.75;5027461;28;9684;-61
2023/07/17 13:14:19;;;;;;;;;;;;;;;30.48;38.88;94637.97;5032568;28;7009;-61
2023/07/17 13:16:52;;;;;;;;;;;;;;;30.49;38.37;94633.91;5031490;28;7307;-61
2023/07/17 13:19:20;;;;;;;;;;;;;;;30.53;38.18;94637.09;5027370;28;6992;-61
2023/07/17 13:21:59;;;;;;;;;;;;;;;30.51;38.49;94634.84;5031895;28;7282;-61
2023/07/17 13:24:53;;;;;;;;;;;;;;;30.53;38.84;94637.88;5032846;28;9070;-61
2023/07/17 13:27:32;;;;;;;;;;;;;;;30.53;38.40;94637.09;5018621;28;7269;-61
2023/07/17 13:30:14;;;;;;;;;;;;;;;30.55;38.36;94631.75;5011791;28;7164;-62
2023/07/17 13:32:57;;;;;;;;;;;;;;;30.55;38.72;94631.75;5012285;28;7178;-61
2023/07/17 13:35:25;;;;;;;;;;;;;;;30.53;38.33;94632.31;5028501;28;8748;-61